sensor_id;sensor_type;location;lat;lon;timestamp;pressure;altitude;pressure_sealevel;temperature;humidity
79419;BME280;68866;49.902;8.680;'2023-04-12 01:59:44';994.87;;;9.81;64.24
79419;BME280;68866;49.902;8.680;'2023-04-12 02:10:07';994.85;;;9.88;63.77
79419;BME280;68866;49.902;8.680;'2023-04-12 02:20:29';994.74;;;9.92;64.51
79419;BME280;68866;49.902;8.680;'2023-04-12 02:30:50';994.8;;;10.03;65.76
79419;BME280;68866;49.902;8.680;'2023-04-12 02:41:14';994.81;;;10.03;68.85
79419;BME280;68866;49.902;8.680;'2023-04-12 02:51:35';994.77;;;9.85;71.33
79419;BME280;68866;49.902;8.680;'2023-04-12 03:01:59';994.59;;;9.7;74.4
79419;BME280;68866;49.902;8.680;'2023-04-12 03:12:35';994.49;;;9.53;76.26
79419;BME280;68866;49.902;8.680;'2023-04-12 03:23:13';994.27;;;9.27;78.61
79419;BME280;68866;49.902;8.680;'2023-04-12 03:33:38';994.15;;;9.11;80.31
79419;BME280;68866;49.902;8.680;'2023-04-12 03:44:01';994.08;;;9.01;81.99
79419;BME280;68866;49.902;8.680;'2023-04-12 03:54:28';993.88;;;8.91;83.38
79419;BME280;68866;49.902;8.680;'2023-04-12 03:59:43';993.76;;;8.77;85.66
79419;BME280;68866;49.902;8.680;'2023-04-12 04:10:06';993.62;;;8.6;87.02
79419;BME280;68866;49.902;8.680;'2023-04-12 04:20:28';993.49;;;8.41;86.93
79419;BME280;68866;49.902;8.680;'2023-04-12 04:30:50';993.2;;;8.3;88.15
79419;BME280;68866;49.902;8.680;'2023-04-12 04:41:16';993.03;;;8.17;88.96
79419;BME280;68866;49.902;8.680;'2023-04-12 04:51:40';992.74;;;8.12;89.89
79419;BME280;68866;49.902;8.680;'2023-04-12 05:02:02';992.62;;;8.11;90.42
79419;BME280;68866;49.902;8.680;'2023-04-12 05:12:27';992.53;;;7.99;90.82
79419;BME280;68866;49.902;8.680;'2023-04-12 05:22:49';992.44;;;8.0;91.8
79419;BME280;68866;49.902;8.680;'2023-04-12 05:33:13';992.2;;;8.01;92.13
79419;BME280;68866;49.902;8.680;'2023-04-12 05:43:39';992.04;;;7.9;92.77
79419;BME280;68866;49.902;8.680;'2023-04-12 05:54:08';991.83;;;7.94;92.76
79419;BME280;68866;49.902;8.680;'2023-04-12 06:04:34';991.63;;;7.97;93.5
79419;BME280;68866;49.902;8.680;'2023-04-12 06:09:46';991.37;;;7.9;94.1
79419;BME280;68866;49.902;8.680;'2023-04-12 06:20:10';991.08;;;7.91;93.52
79419;BME280;68866;49.902;8.680;'2023-04-12 06:30:32';990.79;;;7.87;93.77
79419;BME280;68866;49.902;8.680;'2023-04-12 06:41:02';990.67;;;7.74;94.31
79419;BME280;68866;49.902;8.680;'2023-04-12 06:51:27';990.48;;;7.7;94.67
79419;BME280;68866;49.902;8.680;'2023-04-12 07:01:50';990.36;;;7.68;94.87
79419;BME280;68866;49.902;8.680;'2023-04-12 07:12:12';990.3;;;7.55;95.15
79419;BME280;68866;49.902;8.680;'2023-04-12 07:22:34';990.07;;;7.53;95.61
79419;BME280;68866;49.902;8.680;'2023-04-12 07:32:59';989.78;;;7.52;95.38
79419;BME280;68866;49.902;8.680;'2023-04-12 07:43:21';989.65;;;7.54;95.74
79419;BME280;68866;49.902;8.680;'2023-04-12 07:53:43';989.43;;;7.56;95.34
79419;BME280;68866;49.902;8.680;'2023-04-12 08:04:05';989.11;;;7.63;95.5
79419;BME280;68866;49.902;8.680;'2023-04-12 08:14:28';988.9;;;7.65;95.68
79419;BME280;68866;49.902;8.680;'2023-04-12 08:19:40';988.78;;;7.73;95.13
79419;BME280;68866;49.902;8.680;'2023-04-12 08:30:02';988.8;;;7.78;95.66
79419;BME280;68866;49.902;8.680;'2023-04-12 08:40:25';988.69;;;7.87;95.45
79419;BME280;68866;49.902;8.680;'2023-04-12 08:50:49';988.46;;;7.98;95.65
79419;BME280;68866;49.902;8.680;'2023-04-12 09:01:12';988.23;;;8.11;95.83
79419;BME280;68866;49.902;8.680;'2023-04-12 09:11:33';988.08;;;8.19;95.34
79419;BME280;68866;49.902;8.680;'2023-04-12 09:21:58';987.89;;;8.41;95.12
79419;BME280;68866;49.902;8.680;'2023-04-12 09:32:26';987.53;;;8.58;94.8
79419;BME280;68866;49.902;8.680;'2023-04-12 09:42:51';987.3;;;8.72;93.97
79419;BME280;68866;49.902;8.680;'2023-04-12 09:53:18';987.12;;;8.88;93.43
79419;BME280;68866;49.902;8.680;'2023-04-12 10:03:41';987.08;;;9.02;94.03
79419;BME280;68866;49.902;8.680;'2023-04-12 10:14:04';986.93;;;9.06;93.74
79419;BME280;68866;49.902;8.680;'2023-04-12 10:24:26';986.98;;;9.12;94.1
79419;BME280;68866;49.902;8.680;'2023-04-12 10:29:44';986.95;;;9.15;93.9
79419;BME280;68866;49.902;8.680;'2023-04-12 10:40:08';986.79;;;9.26;94.29
79419;BME280;68866;49.902;8.680;'2023-04-12 10:50:31';986.6;;;9.48;94.6
79419;BME280;68866;49.902;8.680;'2023-04-12 11:00:53';986.44;;;9.66;92.61
79419;BME280;68866;49.902;8.680;'2023-04-12 11:11:21';986.19;;;9.91;92.59
79419;BME280;68866;49.902;8.680;'2023-04-12 11:21:53';986.1;;;10.15;91.99
79419;BME280;68866;49.902;8.680;'2023-04-12 11:42:47';985.72;;;10.47;90.48
79419;BME280;68866;49.902;8.680;'2023-04-12 11:53:15';985.58;;;10.61;91.06
79419;BME280;68866;49.902;8.680;'2023-04-12 12:03:37';985.45;;;10.69;90.77
79419;BME280;68866;49.902;8.680;'2023-04-12 12:14:02';985.3;;;10.71;91.17
79419;BME280;68866;49.902;8.680;'2023-04-12 12:24:27';985.23;;;10.83;90.2
79419;BME280;68866;49.902;8.680;'2023-04-12 12:29:39';985.04;;;10.92;91.19
79419;BME280;68866;49.902;8.680;'2023-04-12 12:40:03';985.13;;;11.1;90.46
79419;BME280;68866;49.902;8.680;'2023-04-12 13:01:05';984.82;;;12.19;86.66
79419;BME280;68866;49.902;8.680;'2023-04-12 13:11:33';984.74;;;12.53;85.21
79419;BME280;68866;49.902;8.680;'2023-04-12 13:21:56';984.71;;;12.86;86.58
79419;BME280;68866;49.902;8.680;'2023-04-12 13:32:19';984.62;;;12.68;86.05
79419;BME280;68866;49.902;8.680;'2023-04-12 13:42:41';984.48;;;12.36;87.27
79419;BME280;68866;49.902;8.680;'2023-04-12 13:53:14';984.47;;;12.32;87.46
79419;BME280;68866;49.902;8.680;'2023-04-12 14:03:37';984.29;;;12.53;86.95
79419;BME280;68866;49.902;8.680;'2023-04-12 14:14:00';984.18;;;12.49;86.51
79419;BME280;68866;49.902;8.680;'2023-04-12 14:24:22';984.41;;;12.74;88.1
79419;BME280;68866;49.902;8.680;'2023-04-12 14:29:37';984.25;;;12.69;89.25
79419;BME280;68866;49.902;8.680;'2023-04-12 14:40:02';984.28;;;12.41;90.02
79419;BME280;68866;49.902;8.680;'2023-04-12 14:50:27';984.23;;;12.2;91.03
79419;BME280;68866;49.902;8.680;'2023-04-12 15:00:50';984.12;;;11.97;92.28
79419;BME280;68866;49.902;8.680;'2023-04-12 15:11:12';984.15;;;11.97;92.55
79419;BME280;68866;49.902;8.680;'2023-04-12 15:21:34';984.18;;;11.94;93.43
79419;BME280;68866;49.902;8.680;'2023-04-12 15:31:57';984.18;;;11.96;93.08
79419;BME280;68866;49.902;8.680;'2023-04-12 15:42:22';984.07;;;11.73;92.67
79419;BME280;68866;49.902;8.680;'2023-04-12 15:52:45';984.15;;;11.59;94.49
79419;BME280;68866;49.902;8.680;'2023-04-12 16:03:07';984.0;;;11.46;93.24
79419;BME280;68866;49.902;8.680;'2023-04-12 16:13:29';983.8;;;11.93;92.75
79419;BME280;68866;49.902;8.680;'2023-04-12 16:23:51';984.0;;;11.93;92.18
79419;BME280;68866;49.902;8.680;'2023-04-12 16:34:17';984.2;;;11.74;92.56
79419;BME280;68866;49.902;8.680;'2023-04-12 16:44:40';984.18;;;11.57;91.02
79419;BME280;68866;49.902;8.680;'2023-04-12 16:49:51';984.3;;;11.6;91.94
79419;BME280;68866;49.902;8.680;'2023-04-12 17:00:15';984.4;;;11.61;92.26
79419;BME280;68866;49.902;8.680;'2023-04-12 17:10:37';984.67;;;11.59;90.66
79419;BME280;68866;49.902;8.680;'2023-04-12 17:20:58';984.55;;;11.49;91.06
79419;BME280;68866;49.902;8.680;'2023-04-12 17:31:20';984.71;;;11.76;90.92
79419;BME280;68866;49.902;8.680;'2023-04-12 17:41:42';984.65;;;11.58;90.49
79419;BME280;68866;49.902;8.680;'2023-04-12 17:52:04';984.47;;;11.51;91.04
79419;BME280;68866;49.902;8.680;'2023-04-12 18:02:26';984.47;;;11.6;90.88
79419;BME280;68866;49.902;8.680;'2023-04-12 18:12:49';984.57;;;11.68;89.7
79419;BME280;68866;49.902;8.680;'2023-04-12 18:23:11';984.61;;;11.7;87.95
79419;BME280;68866;49.902;8.680;'2023-04-12 18:33:33';984.62;;;11.72;85.09
79419;BME280;68866;49.902;8.680;'2023-04-12 18:43:54';984.51;;;11.62;79.38
79419;BME280;68866;49.902;8.680;'2023-04-12 18:54:17';984.41;;;11.57;79.47
79419;BME280;68866;49.902;8.680;'2023-04-12 19:04:41';984.46;;;11.43;79.04
79419;BME280;68866;49.902;8.680;'2023-04-12 19:09:53';984.49;;;11.35;76.96
79419;BME280;68866;49.902;8.680;'2023-04-12 19:20:16';984.7;;;11.28;77.3
79419;BME280;68866;49.902;8.680;'2023-04-12 19:30:39';984.86;;;11.17;77.6
79419;BME280;68866;49.902;8.680;'2023-04-12 19:41:03';985.0;;;11.09;77.69
79419;BME280;68866;49.902;8.680;'2023-04-12 19:51:26';985.03;;;11.0;78.81
79419;BME280;68866;49.902;8.680;'2023-04-12 20:01:48';985.24;;;10.8;78.32
79419;BME280;68866;49.902;8.680;'2023-04-12 20:12:10';985.23;;;10.72;79.61
79419;BME280;68866;49.902;8.680;'2023-04-12 20:22:34';985.57;;;10.6;79.08
79419;BME280;68866;49.902;8.680;'2023-04-12 20:32:56';985.69;;;10.41;79.61
79419;BME280;68866;49.902;8.680;'2023-04-12 20:43:18';985.94;;;10.38;79.5
79419;BME280;68866;49.902;8.680;'2023-04-12 20:53:40';986.16;;;10.41;79.61
79419;BME280;68866;49.902;8.680;'2023-04-12 21:04:02';986.59;;;10.43;78.91
79419;BME280;68866;49.902;8.680;'2023-04-12 21:14:24';987.29;;;10.4;77.91
79419;BME280;68866;49.902;8.680;'2023-04-12 21:19:36';987.79;;;9.49;82.54
79419;BME280;68866;49.902;8.680;'2023-04-12 21:29:59';987.32;;;9.02;86.1
79419;BME280;68866;49.902;8.680;'2023-04-12 21:40:21';987.44;;;8.72;85.99
79419;BME280;68866;49.902;8.680;'2023-04-12 21:50:45';987.27;;;8.45;87.09
79419;BME280;68866;49.902;8.680;'2023-04-12 22:01:07';987.24;;;8.16;88.94
79419;BME280;68866;49.902;8.680;'2023-04-12 22:11:29';987.47;;;7.9;90.78
79419;BME280;68866;49.902;8.680;'2023-04-12 22:21:53';987.36;;;7.7;90.65
79419;BME280;68866;49.902;8.680;'2023-04-12 22:32:16';987.63;;;7.51;90.89
79419;BME280;68866;49.902;8.680;'2023-04-12 22:42:38';987.73;;;7.41;91.04
79419;BME280;68866;49.902;8.680;'2023-04-12 22:52:59';987.88;;;7.26;91.51
79419;BME280;68866;49.902;8.680;'2023-04-12 23:03:22';987.92;;;7.16;91.06
79419;BME280;68866;49.902;8.680;'2023-04-12 23:13:45';987.88;;;7.02;90.72
79419;BME280;68866;49.902;8.680;'2023-04-12 23:24:10';988.07;;;7.01;89.99
79419;BME280;68866;49.902;8.680;'2023-04-12 23:34:32';988.07;;;6.99;89.94
79419;BME280;68866;49.902;8.680;'2023-04-12 23:39:44';988.12;;;7.02;89.57
79419;BME280;68866;49.902;8.680;'2023-04-12 23:50:09';988.25;;;7.0;89.83
79419;BME280;68866;49.902;8.680;'2023-04-13 00:00:31';988.13;;;7.04;88.5
79419;BME280;68866;49.902;8.680;'2023-04-13 00:10:53';988.2;;;7.04;88.45
79419;BME280;68866;49.902;8.680;'2023-04-13 00:21:16';988.34;;;7.01;88.5
79419;BME280;68866;49.902;8.680;'2023-04-13 00:31:37';988.38;;;6.93;87.94
79419;BME280;68866;49.902;8.680;'2023-04-13 00:42:01';988.35;;;6.93;87.93
79419;BME280;68866;49.902;8.680;'2023-04-13 00:52:23';988.26;;;6.79;87.44
79419;BME280;68866;49.902;8.680;'2023-04-13 01:02:45';988.33;;;6.79;85.17
79419;BME280;68866;49.902;8.680;'2023-04-13 01:13:07';988.4;;;6.88;83.74
79419;BME280;68866;49.902;8.680;'2023-04-13 01:23:30';988.36;;;6.83;83.98
79419;BME280;68866;49.902;8.680;'2023-04-13 01:33:52';988.21;;;6.85;83.35
79419;BME280;68866;49.902;8.680;'2023-04-13 01:44:14';988.21;;;6.98;81.73
79419;BME280;68866;49.902;8.680;'2023-04-13 01:54:36';988.22;;;7.03;80.41
